OMEGA LAV

INFORMACIÓN METAR y TAF
METAR FOR LEVC
ADDS - METARS form results

(0043 UTC 11 December 2018)
Data provider http://aviationweather.gov/metar/data/
 
METAR text: LEVC 110030Z VRB02KT CAVOK 08/07 Q1026 NOSIG
Conditions at: LEVC (VALENCIA (CIV/MI, ES) observed 0030 UTC 11 December 2018
Temperature: 8.0°C (46°F)
Dewpoint: 7.0°C (45°F) [RH = 93%]
Pressure (altimeter): 30.30 inches Hg (1026.0 mb)
Winds: variable direction winds at 2 MPH (2 knots; 1.0 m/s)
Visibility: 6 or more miles (10+ km)
Ceiling: ceiling and visibility are OK
Clouds: unknown
Weather: no significant weather observed at this time

METAR text: LEVC 110000Z 27004KT CAVOK 08/07 Q1026 NOSIG
Conditions at: LEVC (VALENCIA (CIV/MI, ES) observed 0000 UTC 11 December 2018
Temperature: 8.0°C (46°F)
Dewpoint: 7.0°C (45°F) [RH = 93%]
Pressure (altimeter): 30.30 inches Hg (1026.0 mb)
Winds: from the W (270 degrees) at 5 MPH (4 knots; 2.1 m/s)
Visibility: 6 or more miles (10+ km)
Ceiling: ceiling and visibility are OK
Clouds: unknown
Weather: no significant weather observed at this time

Forecast for: LEVC (VALENCIA (CIV/MI, ES)
Text: TAF LEVC 102300Z 1100/1124 28005KT 9999 FEW030 TX17/1112Z TN06/1106Z
Forecast period: 0000 to 1000 UTC 11 December 2018
Forecast type: FROM: standard forecast or significant change
Winds: from the W (280 degrees) at 6 MPH (5 knots; 2.6 m/s)
Visibility: 6 or more miles 10+ km)
Ceiling: at least 12,000 feet AGL
Clouds: few clouds at 3000 feet AGL
Weather: no significant weather forecast for this period
Text: BECMG 1110/1112 12006KT
Forecast period: 1000 UTC 11 December 2018 to 0000 UTC 12 December 2018
Forecast type: BECOMING: Conditions expected to become as follows by 1200 UTC 11 December 2018
Winds: from the ESE (120 degrees) at 7 MPH (6 knots; 3.1 m/s)
Visibility: 6 or more miles 10+ km)
Ceiling: at least 12,000 feet AGL
Clouds: few clouds at 3000 feet AGL
Weather: no significant weather forecast for this period

MAPA DE AEROPUERTO

INFORMACIÓN DE PISTA
Pista 04 Longitud 5394 ft Ancho 148 ft
Elevación 205 ft Umbral desplazado 0 ft Rumbo de pista 38
Pista 22 Longitud 5394 ft Ancho 148 ft
Elevación 188 ft Umbral desplazado 0 ft Rumbo de pista 218
Pista 12 Longitud 8858 ft Ancho 148 ft
Elevación 225 ft Umbral desplazado 0 ft Rumbo de pista 116
Pista 30 Longitud 8858 ft Ancho 148 ft
Elevación 172 ft Umbral desplazado 0 ft Rumbo de pista 296

FRECUANCIAS DEL AEROPUERTO
Tipo APP Nombre APP Frecuencia 120.1 MHZ
Tipo ATIS Nombre ATIS Frecuencia 121.075 MHZ
Tipo GND Nombre GND Frecuencia 121.7 MHZ
Tipo TWR Nombre TWR Frecuencia 118.55 MHZ

RADIO AYUDAS DEL AEROPUERTO
Tipo NDB Nombre Valencia Frecuencia 400 KHZ
Tipo NDB Nombre Valencia Frecuencia 340 KHZ
Tipo NDB Nombre Sagunto Frecuencia 356 KHZ
Tipo VOR-DME Nombre Valencia Frecuencia 116100 KHZ


Normativa | Powered by VAM 2.5.1 | Customized by Aisa © 2018